sensor_id;sensor_type;location;lat;lon;timestamp;temperature;humidity
5705;DHT22;2877;48.238;11.160;2023-01-04T00:01:55;1.60;99.90
5705;DHT22;2877;48.238;11.160;2023-01-04T00:04:21;1.60;99.90
5705;DHT22;2877;48.238;11.160;2023-01-04T00:06:46;1.60;99.90
5705;DHT22;2877;48.238;11.160;2023-01-04T00:09:12;1.60;99.90
5705;DHT22;2877;48.238;11.160;2023-01-04T00:11:37;1.60;99.90
5705;DHT22;2877;48.238;11.160;2023-01-04T00:14:03;1.60;99.90
5705;DHT22;2877;48.238;11.160;2023-01-04T00:16:29;1.60;99.90
5705;DHT22;2877;48.238;11.160;2023-01-04T00:18:55;1.60;99.90
5705;DHT22;2877;48.238;11.160;2023-01-04T00:21:23;1.60;99.90
5705;DHT22;2877;48.238;11.160;2023-01-04T00:23:51;1.70;99.90
5705;DHT22;2877;48.238;11.160;2023-01-04T00:26:22;1.60;99.90
5705;DHT22;2877;48.238;11.160;2023-01-04T00:28:51;1.70;99.90
5705;DHT22;2877;48.238;11.160;2023-01-04T00:31:17;1.80;99.90
5705;DHT22;2877;48.238;11.160;2023-01-04T00:33:43;1.80;99.90
5705;DHT22;2877;48.238;11.160;2023-01-04T00:36:11;1.90;99.90
5705;DHT22;2877;48.238;11.160;2023-01-04T00:38:37;1.90;99.90
5705;DHT22;2877;48.238;11.160;2023-01-04T00:41:04;2.10;99.90
5705;DHT22;2877;48.238;11.160;2023-01-04T00:43:30;2.30;99.90
5705;DHT22;2877;48.238;11.160;2023-01-04T00:45:55;2.50;99.90
5705;DHT22;2877;48.238;11.160;2023-01-04T00:48:21;2.60;99.90
5705;DHT22;2877;48.238;11.160;2023-01-04T00:50:47;2.60;99.90
5705;DHT22;2877;48.238;11.160;2023-01-04T00:53:14;2.80;99.90
5705;DHT22;2877;48.238;11.160;2023-01-04T00:55:39;2.90;99.90
5705;DHT22;2877;48.238;11.160;2023-01-04T00:58:05;3.00;99.90
5705;DHT22;2877;48.238;11.160;2023-01-04T01:00:31;3.10;99.90
5705;DHT22;2877;48.238;11.160;2023-01-04T01:02:57;3.20;99.90
5705;DHT22;2877;48.238;11.160;2023-01-04T01:05:22;3.30;99.90
5705;DHT22;2877;48.238;11.160;2023-01-04T01:07:48;3.30;99.90
5705;DHT22;2877;48.238;11.160;2023-01-04T01:10:13;3.40;99.90
5705;DHT22;2877;48.238;11.160;2023-01-04T01:12:39;3.40;99.90
5705;DHT22;2877;48.238;11.160;2023-01-04T01:15:05;3.50;99.90
5705;DHT22;2877;48.238;11.160;2023-01-04T01:17:32;3.50;99.90
5705;DHT22;2877;48.238;11.160;2023-01-04T01:19:58;3.40;99.90
5705;DHT22;2877;48.238;11.160;2023-01-04T01:22:24;3.40;99.90
5705;DHT22;2877;48.238;11.160;2023-01-04T01:24:49;3.50;99.90
5705;DHT22;2877;48.238;11.160;2023-01-04T01:27:15;3.50;99.90
5705;DHT22;2877;48.238;11.160;2023-01-04T01:29:40;3.50;99.90
5705;DHT22;2877;48.238;11.160;2023-01-04T01:32:06;3.60;99.90
5705;DHT22;2877;48.238;11.160;2023-01-04T01:34:31;3.60;99.90
5705;DHT22;2877;48.238;11.160;2023-01-04T01:36:57;3.70;99.90
5705;DHT22;2877;48.238;11.160;2023-01-04T01:39:22;3.80;99.90
5705;DHT22;2877;48.238;11.160;2023-01-04T01:41:48;3.80;99.90
5705;DHT22;2877;48.238;11.160;2023-01-04T01:47:17;3.90;99.90
5705;DHT22;2877;48.238;11.160;2023-01-04T01:49:46;4.00;99.90
5705;DHT22;2877;48.238;11.160;2023-01-04T01:52:19;4.00;99.90
5705;DHT22;2877;48.238;11.160;2023-01-04T01:54:50;4.00;99.90
5705;DHT22;2877;48.238;11.160;2023-01-04T01:57:20;4.10;99.90
5705;DHT22;2877;48.238;11.160;2023-01-04T01:59:47;4.10;99.90
5705;DHT22;2877;48.238;11.160;2023-01-04T02:02:14;4.10;99.90
5705;DHT22;2877;48.238;11.160;2023-01-04T02:04:42;4.00;99.90
5705;DHT22;2877;48.238;11.160;2023-01-04T02:07:10;4.00;99.90
5705;DHT22;2877;48.238;11.160;2023-01-04T02:09:36;3.80;99.90
5705;DHT22;2877;48.238;11.160;2023-01-04T02:12:02;3.70;99.90
5705;DHT22;2877;48.238;11.160;2023-01-04T02:14:28;3.60;99.90
5705;DHT22;2877;48.238;11.160;2023-01-04T02:17:10;3.50;99.90
5705;DHT22;2877;48.238;11.160;2023-01-04T02:29:04;2.90;99.90
5705;DHT22;2877;48.238;11.160;2023-01-04T02:31:52;2.90;99.90
5705;DHT22;2877;48.238;11.160;2023-01-04T02:34:42;2.80;99.90
5705;DHT22;2877;48.238;11.160;2023-01-04T02:42:32;2.80;99.90
5705;DHT22;2877;48.238;11.160;2023-01-04T02:45:24;2.70;99.90
5705;DHT22;2877;48.238;11.160;2023-01-04T02:47:51;2.70;99.90
5705;DHT22;2877;48.238;11.160;2023-01-04T02:50:47;2.60;99.90
5705;DHT22;2877;48.238;11.160;2023-01-04T02:53:20;2.60;99.90
5705;DHT22;2877;48.238;11.160;2023-01-04T02:56:12;2.60;99.90
5705;DHT22;2877;48.238;11.160;2023-01-04T02:58:57;2.50;99.90
5705;DHT22;2877;48.238;11.160;2023-01-04T03:04:33;2.40;99.90
5705;DHT22;2877;48.238;11.160;2023-01-04T03:12:59;2.40;99.90
5705;DHT22;2877;48.238;11.160;2023-01-04T03:15:30;2.30;99.90
5705;DHT22;2877;48.238;11.160;2023-01-04T03:18:04;2.30;99.90
5705;DHT22;2877;48.238;11.160;2023-01-04T03:20:32;2.30;99.90
5705;DHT22;2877;48.238;11.160;2023-01-04T03:23:03;2.20;99.90
5705;DHT22;2877;48.238;11.160;2023-01-04T03:25:53;2.10;99.90
5705;DHT22;2877;48.238;11.160;2023-01-04T03:28:40;2.10;99.90
5705;DHT22;2877;48.238;11.160;2023-01-04T03:31:36;2.00;99.90
5705;DHT22;2877;48.238;11.160;2023-01-04T03:34:21;2.00;99.90
5705;DHT22;2877;48.238;11.160;2023-01-04T03:37:37;1.90;99.90
5705;DHT22;2877;48.238;11.160;2023-01-04T03:40:17;1.90;99.90
5705;DHT22;2877;48.238;11.160;2023-01-04T03:46:03;1.90;99.90
5705;DHT22;2877;48.238;11.160;2023-01-04T03:48:57;1.80;99.90
5705;DHT22;2877;48.238;11.160;2023-01-04T03:51:28;1.80;99.90
5705;DHT22;2877;48.238;11.160;2023-01-04T03:56:38;1.80;99.90
5705;DHT22;2877;48.238;11.160;2023-01-04T03:59:06;1.80;99.90
5705;DHT22;2877;48.238;11.160;2023-01-04T04:01:34;1.80;99.90
5705;DHT22;2877;48.238;11.160;2023-01-04T04:04:00;1.90;99.90
5705;DHT22;2877;48.238;11.160;2023-01-04T04:06:44;2.00;99.90
5705;DHT22;2877;48.238;11.160;2023-01-04T04:09:28;2.00;99.90
5705;DHT22;2877;48.238;11.160;2023-01-04T04:11:54;2.00;99.90
5705;DHT22;2877;48.238;11.160;2023-01-04T04:14:20;1.90;99.90
5705;DHT22;2877;48.238;11.160;2023-01-04T04:16:45;2.00;99.90
5705;DHT22;2877;48.238;11.160;2023-01-04T04:19:11;2.00;99.90
5705;DHT22;2877;48.238;11.160;2023-01-04T04:21:36;2.00;99.90
5705;DHT22;2877;48.238;11.160;2023-01-04T04:24:02;2.00;99.90
5705;DHT22;2877;48.238;11.160;2023-01-04T04:26:28;2.00;99.90
5705;DHT22;2877;48.238;11.160;2023-01-04T04:28:53;2.00;99.90
5705;DHT22;2877;48.238;11.160;2023-01-04T04:31:19;2.00;99.90
5705;DHT22;2877;48.238;11.160;2023-01-04T04:33:44;2.10;99.90
5705;DHT22;2877;48.238;11.160;2023-01-04T04:36:10;2.40;99.90
5705;DHT22;2877;48.238;11.160;2023-01-04T04:38:36;2.50;99.90
5705;DHT22;2877;48.238;11.160;2023-01-04T04:41:10;2.60;99.90
5705;DHT22;2877;48.238;11.160;2023-01-04T04:43:54;2.70;99.90
5705;DHT22;2877;48.238;11.160;2023-01-04T04:46:20;2.80;99.90
5705;DHT22;2877;48.238;11.160;2023-01-04T04:48:46;2.80;99.90
5705;DHT22;2877;48.238;11.160;2023-01-04T04:51:11;2.90;99.90
5705;DHT22;2877;48.238;11.160;2023-01-04T04:53:37;3.10;99.90
5705;DHT22;2877;48.238;11.160;2023-01-04T04:56:03;3.10;99.90
5705;DHT22;2877;48.238;11.160;2023-01-04T04:58:28;3.20;99.90
5705;DHT22;2877;48.238;11.160;2023-01-04T05:00:54;3.30;99.90
5705;DHT22;2877;48.238;11.160;2023-01-04T05:03:19;3.40;99.90
5705;DHT22;2877;48.238;11.160;2023-01-04T05:05:45;3.50;99.90
5705;DHT22;2877;48.238;11.160;2023-01-04T05:08:11;3.60;99.90
5705;DHT22;2877;48.238;11.160;2023-01-04T05:10:37;3.60;99.90
5705;DHT22;2877;48.238;11.160;2023-01-04T05:13:03;3.70;99.90
5705;DHT22;2877;48.238;11.160;2023-01-04T05:15:45;3.70;99.90
5705;DHT22;2877;48.238;11.160;2023-01-04T05:18:12;3.80;99.90
5705;DHT22;2877;48.238;11.160;2023-01-04T05:20:38;3.80;99.90
5705;DHT22;2877;48.238;11.160;2023-01-04T05:23:04;3.70;99.90
5705;DHT22;2877;48.238;11.160;2023-01-04T05:25:30;3.70;99.90
5705;DHT22;2877;48.238;11.160;2023-01-04T05:27:56;3.60;99.90
5705;DHT22;2877;48.238;11.160;2023-01-04T05:30:21;3.50;99.90
5705;DHT22;2877;48.238;11.160;2023-01-04T05:33:06;3.30;99.90
5705;DHT22;2877;48.238;11.160;2023-01-04T05:35:32;3.20;99.90
5705;DHT22;2877;48.238;11.160;2023-01-04T05:37:57;3.20;99.90
5705;DHT22;2877;48.238;11.160;2023-01-04T05:40:23;3.10;99.90
5705;DHT22;2877;48.238;11.160;2023-01-04T05:42:49;3.10;99.90
5705;DHT22;2877;48.238;11.160;2023-01-04T05:45:15;3.10;99.90
5705;DHT22;2877;48.238;11.160;2023-01-04T05:47:41;3.10;99.90
5705;DHT22;2877;48.238;11.160;2023-01-04T05:50:08;3.20;99.90
5705;DHT22;2877;48.238;11.160;2023-01-04T05:52:34;3.20;99.90
5705;DHT22;2877;48.238;11.160;2023-01-04T05:54:59;3.20;99.90
5705;DHT22;2877;48.238;11.160;2023-01-04T05:57:25;3.10;99.90
5705;DHT22;2877;48.238;11.160;2023-01-04T05:59:51;3.00;99.90
5705;DHT22;2877;48.238;11.160;2023-01-04T06:02:19;2.90;99.90
5705;DHT22;2877;48.238;11.160;2023-01-04T06:04:45;3.00;99.90
5705;DHT22;2877;48.238;11.160;2023-01-04T06:07:11;3.00;99.90
5705;DHT22;2877;48.238;11.160;2023-01-04T06:09:36;3.00;99.90
5705;DHT22;2877;48.238;11.160;2023-01-04T06:12:02;3.00;99.90
5705;DHT22;2877;48.238;11.160;2023-01-04T06:14:28;2.90;99.90
5705;DHT22;2877;48.238;11.160;2023-01-04T06:16:53;2.90;99.90
5705;DHT22;2877;48.238;11.160;2023-01-04T06:19:19;2.80;99.90
5705;DHT22;2877;48.238;11.160;2023-01-04T06:21:44;2.80;99.90
5705;DHT22;2877;48.238;11.160;2023-01-04T06:24:10;2.80;99.90
5705;DHT22;2877;48.238;11.160;2023-01-04T06:26:36;2.70;99.90
5705;DHT22;2877;48.238;11.160;2023-01-04T06:29:01;2.80;99.90
5705;DHT22;2877;48.238;11.160;2023-01-04T06:31:27;2.80;99.90
5705;DHT22;2877;48.238;11.160;2023-01-04T06:33:52;2.80;99.90
5705;DHT22;2877;48.238;11.160;2023-01-04T06:36:18;2.80;99.90
5705;DHT22;2877;48.238;11.160;2023-01-04T06:38:43;2.90;99.90
5705;DHT22;2877;48.238;11.160;2023-01-04T06:41:09;2.90;99.90
5705;DHT22;2877;48.238;11.160;2023-01-04T06:43:34;2.90;99.90
5705;DHT22;2877;48.238;11.160;2023-01-04T06:46:00;2.90;99.90
5705;DHT22;2877;48.238;11.160;2023-01-04T06:48:26;2.90;99.90
5705;DHT22;2877;48.238;11.160;2023-01-04T06:50:52;2.90;99.90
5705;DHT22;2877;48.238;11.160;2023-01-04T06:53:17;2.90;99.90
5705;DHT22;2877;48.238;11.160;2023-01-04T06:55:44;3.00;99.90
5705;DHT22;2877;48.238;11.160;2023-01-04T06:58:10;3.00;99.90
5705;DHT22;2877;48.238;11.160;2023-01-04T07:00:35;3.00;99.90
5705;DHT22;2877;48.238;11.160;2023-01-04T07:03:01;3.00;99.90
5705;DHT22;2877;48.238;11.160;2023-01-04T07:05:27;3.00;99.90
5705;DHT22;2877;48.238;11.160;2023-01-04T07:07:53;3.10;99.90
5705;DHT22;2877;48.238;11.160;2023-01-04T07:10:19;3.10;99.90
5705;DHT22;2877;48.238;11.160;2023-01-04T07:12:44;3.20;99.90
5705;DHT22;2877;48.238;11.160;2023-01-04T07:15:10;3.20;99.90
5705;DHT22;2877;48.238;11.160;2023-01-04T07:17:36;3.20;99.90
5705;DHT22;2877;48.238;11.160;2023-01-04T07:20:02;3.20;99.90
5705;DHT22;2877;48.238;11.160;2023-01-04T07:22:28;3.20;99.90
5705;DHT22;2877;48.238;11.160;2023-01-04T07:24:54;3.20;99.90
5705;DHT22;2877;48.238;11.160;2023-01-04T07:27:19;3.20;99.90
5705;DHT22;2877;48.238;11.160;2023-01-04T07:29:45;3.10;99.90
5705;DHT22;2877;48.238;11.160;2023-01-04T07:32:11;3.10;99.90
5705;DHT22;2877;48.238;11.160;2023-01-04T07:34:37;3.00;99.90
5705;DHT22;2877;48.238;11.160;2023-01-04T07:37:04;3.00;99.90
5705;DHT22;2877;48.238;11.160;2023-01-04T07:39:31;3.00;99.90
5705;DHT22;2877;48.238;11.160;2023-01-04T07:41:56;3.10;99.90
5705;DHT22;2877;48.238;11.160;2023-01-04T07:44:22;3.10;99.90
5705;DHT22;2877;48.238;11.160;2023-01-04T07:46:51;3.20;99.90
5705;DHT22;2877;48.238;11.160;2023-01-04T07:49:17;3.20;99.90
5705;DHT22;2877;48.238;11.160;2023-01-04T07:51:43;3.30;99.90
5705;DHT22;2877;48.238;11.160;2023-01-04T07:54:09;3.40;99.90
5705;DHT22;2877;48.238;11.160;2023-01-04T07:56:35;3.50;99.90
5705;DHT22;2877;48.238;11.160;2023-01-04T07:59:03;3.60;99.90
5705;DHT22;2877;48.238;11.160;2023-01-04T08:01:30;3.60;99.90
5705;DHT22;2877;48.238;11.160;2023-01-04T08:03:56;3.70;99.90
5705;DHT22;2877;48.238;11.160;2023-01-04T08:06:22;3.80;99.90
5705;DHT22;2877;48.238;11.160;2023-01-04T08:08:48;3.90;99.90
5705;DHT22;2877;48.238;11.160;2023-01-04T08:11:15;4.00;99.90
5705;DHT22;2877;48.238;11.160;2023-01-04T08:13:42;4.10;99.90
5705;DHT22;2877;48.238;11.160;2023-01-04T08:16:21;4.20;99.90
5705;DHT22;2877;48.238;11.160;2023-01-04T08:18:47;4.40;99.90
5705;DHT22;2877;48.238;11.160;2023-01-04T08:21:13;4.50;99.90
5705;DHT22;2877;48.238;11.160;2023-01-04T08:23:39;4.70;99.90
5705;DHT22;2877;48.238;11.160;2023-01-04T08:26:10;4.90;99.90
5705;DHT22;2877;48.238;11.160;2023-01-04T08:28:36;5.00;99.90
5705;DHT22;2877;48.238;11.160;2023-01-04T08:31:11;5.20;99.90
5705;DHT22;2877;48.238;11.160;2023-01-04T08:33:37;5.30;99.90
5705;DHT22;2877;48.238;11.160;2023-01-04T08:36:17;5.40;99.90
5705;DHT22;2877;48.238;11.160;2023-01-04T08:38:44;5.50;99.90
5705;DHT22;2877;48.238;11.160;2023-01-04T08:41:10;5.60;99.90
5705;DHT22;2877;48.238;11.160;2023-01-04T08:43:35;5.70;99.90
5705;DHT22;2877;48.238;11.160;2023-01-04T08:46:02;5.80;99.90
5705;DHT22;2877;48.238;11.160;2023-01-04T08:48:29;5.80;99.90
5705;DHT22;2877;48.238;11.160;2023-01-04T08:51:00;5.90;99.90
5705;DHT22;2877;48.238;11.160;2023-01-04T08:53:26;5.90;99.90
5705;DHT22;2877;48.238;11.160;2023-01-04T08:55:53;6.00;99.90
5705;DHT22;2877;48.238;11.160;2023-01-04T08:58:19;6.10;99.90
5705;DHT22;2877;48.238;11.160;2023-01-04T09:00:44;6.20;99.90
5705;DHT22;2877;48.238;11.160;2023-01-04T09:03:10;6.30;99.90
5705;DHT22;2877;48.238;11.160;2023-01-04T09:05:35;6.40;99.90
5705;DHT22;2877;48.238;11.160;2023-01-04T09:08:01;6.50;99.90
5705;DHT22;2877;48.238;11.160;2023-01-04T09:10:26;6.60;99.90
5705;DHT22;2877;48.238;11.160;2023-01-04T09:12:52;6.60;99.90
5705;DHT22;2877;48.238;11.160;2023-01-04T09:15:18;6.70;99.90
5705;DHT22;2877;48.238;11.160;2023-01-04T09:17:44;6.80;99.90
5705;DHT22;2877;48.238;11.160;2023-01-04T09:20:10;6.90;99.90
5705;DHT22;2877;48.238;11.160;2023-01-04T09:22:35;6.90;99.90
5705;DHT22;2877;48.238;11.160;2023-01-04T09:25:01;7.00;99.90
5705;DHT22;2877;48.238;11.160;2023-01-04T09:27:27;7.10;99.90
5705;DHT22;2877;48.238;11.160;2023-01-04T09:29:53;7.20;99.90
5705;DHT22;2877;48.238;11.160;2023-01-04T09:32:19;7.40;99.90
5705;DHT22;2877;48.238;11.160;2023-01-04T09:34:46;7.40;99.90
5705;DHT22;2877;48.238;11.160;2023-01-04T09:37:12;7.50;99.90
5705;DHT22;2877;48.238;11.160;2023-01-04T09:39:37;7.60;99.90
5705;DHT22;2877;48.238;11.160;2023-01-04T09:42:12;7.70;99.90
5705;DHT22;2877;48.238;11.160;2023-01-04T09:44:53;7.70;99.90
5705;DHT22;2877;48.238;11.160;2023-01-04T09:50:15;7.80;99.90
5705;DHT22;2877;48.238;11.160;2023-01-04T09:52:55;7.80;99.90
5705;DHT22;2877;48.238;11.160;2023-01-04T09:55:37;7.90;99.90
5705;DHT22;2877;48.238;11.160;2023-01-04T09:58:27;7.90;99.90
5705;DHT22;2877;48.238;11.160;2023-01-04T10:03:38;8.20;99.90
5705;DHT22;2877;48.238;11.160;2023-01-04T10:06:07;8.30;99.90
5705;DHT22;2877;48.238;11.160;2023-01-04T10:08:34;8.30;99.90
5705;DHT22;2877;48.238;11.160;2023-01-04T10:11:18;8.30;99.90
5705;DHT22;2877;48.238;11.160;2023-01-04T10:14:12;8.30;99.90
5705;DHT22;2877;48.238;11.160;2023-01-04T10:22:10;8.30;99.90
5705;DHT22;2877;48.238;11.160;2023-01-04T10:25:00;8.30;99.90
5705;DHT22;2877;48.238;11.160;2023-01-04T10:30:20;8.30;99.90
5705;DHT22;2877;48.238;11.160;2023-01-04T10:32:59;8.30;99.90
5705;DHT22;2877;48.238;11.160;2023-01-04T10:35:29;8.30;99.90
5705;DHT22;2877;48.238;11.160;2023-01-04T10:38:02;8.30;99.90
5705;DHT22;2877;48.238;11.160;2023-01-04T10:40:32;8.30;99.90
5705;DHT22;2877;48.238;11.160;2023-01-04T10:43:08;8.30;99.90
5705;DHT22;2877;48.238;11.160;2023-01-04T10:45:42;8.30;99.90
5705;DHT22;2877;48.238;11.160;2023-01-04T10:48:50;8.30;99.90
5705;DHT22;2877;48.238;11.160;2023-01-04T10:51:29;8.30;99.90
5705;DHT22;2877;48.238;11.160;2023-01-04T10:54:02;8.20;99.90
5705;DHT22;2877;48.238;11.160;2023-01-04T10:56:38;8.20;99.90
5705;DHT22;2877;48.238;11.160;2023-01-04T10:59:08;8.20;99.90
5705;DHT22;2877;48.238;11.160;2023-01-04T11:04:32;8.20;99.90
5705;DHT22;2877;48.238;11.160;2023-01-04T11:07:19;8.20;99.90
5705;DHT22;2877;48.238;11.160;2023-01-04T11:09:58;8.20;99.90
5705;DHT22;2877;48.238;11.160;2023-01-04T11:12:25;8.20;99.90
5705;DHT22;2877;48.238;11.160;2023-01-04T11:14:51;8.20;99.90
5705;DHT22;2877;48.238;11.160;2023-01-04T11:17:19;8.30;99.90
5705;DHT22;2877;48.238;11.160;2023-01-04T11:19:44;8.30;99.90
5705;DHT22;2877;48.238;11.160;2023-01-04T11:24:45;8.30;99.90
5705;DHT22;2877;48.238;11.160;2023-01-04T11:27:24;8.30;99.90
5705;DHT22;2877;48.238;11.160;2023-01-04T11:29:57;8.30;99.90
5705;DHT22;2877;48.238;11.160;2023-01-04T11:35:09;8.40;99.90
5705;DHT22;2877;48.238;11.160;2023-01-04T11:37:41;8.40;99.90
5705;DHT22;2877;48.238;11.160;2023-01-04T11:42:46;8.50;99.90
5705;DHT22;2877;48.238;11.160;2023-01-04T11:45:21;8.50;99.90
5705;DHT22;2877;48.238;11.160;2023-01-04T11:47:53;8.60;99.90
5705;DHT22;2877;48.238;11.160;2023-01-04T11:52:59;8.80;99.90
5705;DHT22;2877;48.238;11.160;2023-01-04T11:55:29;8.70;99.90
5705;DHT22;2877;48.238;11.160;2023-01-04T11:58:10;8.70;99.90
5705;DHT22;2877;48.238;11.160;2023-01-04T12:00:38;8.70;99.90
5705;DHT22;2877;48.238;11.160;2023-01-04T12:03:14;8.60;99.90
5705;DHT22;2877;48.238;11.160;2023-01-04T12:05:40;8.70;99.90
5705;DHT22;2877;48.238;11.160;2023-01-04T12:08:26;8.60;99.90
5705;DHT22;2877;48.238;11.160;2023-01-04T12:10:52;8.70;99.90
5705;DHT22;2877;48.238;11.160;2023-01-04T12:13:18;8.70;99.90
5705;DHT22;2877;48.238;11.160;2023-01-04T12:18:31;8.70;99.90
5705;DHT22;2877;48.238;11.160;2023-01-04T12:21:00;8.70;99.90
5705;DHT22;2877;48.238;11.160;2023-01-04T12:23:26;8.60;99.90
5705;DHT22;2877;48.238;11.160;2023-01-04T12:25:52;8.60;99.90
5705;DHT22;2877;48.238;11.160;2023-01-04T12:33:48;8.70;99.90
5705;DHT22;2877;48.238;11.160;2023-01-04T12:36:18;8.70;99.90
5705;DHT22;2877;48.238;11.160;2023-01-04T12:46:51;8.80;99.90
5705;DHT22;2877;48.238;11.160;2023-01-04T12:54:54;8.90;99.90
5705;DHT22;2877;48.238;11.160;2023-01-04T12:57:22;8.90;99.90
5705;DHT22;2877;48.238;11.160;2023-01-04T12:59:58;8.90;99.90
5705;DHT22;2877;48.238;11.160;2023-01-04T13:02:29;9.00;99.90
5705;DHT22;2877;48.238;11.160;2023-01-04T13:07:47;9.00;99.90
5705;DHT22;2877;48.238;11.160;2023-01-04T13:10:36;9.00;99.90
5705;DHT22;2877;48.238;11.160;2023-01-04T13:20:57;9.10;99.90
5705;DHT22;2877;48.238;11.160;2023-01-04T13:23:25;9.10;99.90
5705;DHT22;2877;48.238;11.160;2023-01-04T13:25:51;9.10;99.90
5705;DHT22;2877;48.238;11.160;2023-01-04T13:28:18;9.20;99.90
5705;DHT22;2877;48.238;11.160;2023-01-04T13:30:44;9.20;99.90
5705;DHT22;2877;48.238;11.160;2023-01-04T13:33:18;9.20;99.90
5705;DHT22;2877;48.238;11.160;2023-01-04T13:36:01;9.30;99.90
5705;DHT22;2877;48.238;11.160;2023-01-04T13:38:28;9.30;99.90
5705;DHT22;2877;48.238;11.160;2023-01-04T13:40:56;9.30;99.90
5705;DHT22;2877;48.238;11.160;2023-01-04T13:43:48;9.30;99.90
5705;DHT22;2877;48.238;11.160;2023-01-04T13:46:20;9.30;99.90
5705;DHT22;2877;48.238;11.160;2023-01-04T13:48:50;9.30;99.90
5705;DHT22;2877;48.238;11.160;2023-01-04T13:51:30;9.30;99.90
5705;DHT22;2877;48.238;11.160;2023-01-04T13:54:01;9.30;99.90
5705;DHT22;2877;48.238;11.160;2023-01-04T13:56:30;9.30;99.90
5705;DHT22;2877;48.238;11.160;2023-01-04T13:58:56;9.40;99.90
5705;DHT22;2877;48.238;11.160;2023-01-04T14:01:33;9.40;99.90
5705;DHT22;2877;48.238;11.160;2023-01-04T14:04:05;9.40;99.90
5705;DHT22;2877;48.238;11.160;2023-01-04T14:06:43;9.30;99.90
5705;DHT22;2877;48.238;11.160;2023-01-04T14:11:41;9.40;99.90
5705;DHT22;2877;48.238;11.160;2023-01-04T14:14:46;9.40;99.90
5705;DHT22;2877;48.238;11.160;2023-01-04T14:17:29;9.30;99.90
5705;DHT22;2877;48.238;11.160;2023-01-04T14:20:03;9.30;99.90
5705;DHT22;2877;48.238;11.160;2023-01-04T14:25:00;9.20;99.90
5705;DHT22;2877;48.238;11.160;2023-01-04T14:27:41;9.20;99.90
5705;DHT22;2877;48.238;11.160;2023-01-04T14:32:59;9.20;99.90
5705;DHT22;2877;48.238;11.160;2023-01-04T14:35:27;9.20;99.90
5705;DHT22;2877;48.238;11.160;2023-01-04T14:37:54;9.30;99.90
5705;DHT22;2877;48.238;11.160;2023-01-04T14:42:46;9.20;99.90
5705;DHT22;2877;48.238;11.160;2023-01-04T14:45:12;9.20;99.90
5705;DHT22;2877;48.238;11.160;2023-01-04T14:47:38;9.20;99.90
5705;DHT22;2877;48.238;11.160;2023-01-04T14:50:04;9.20;99.90
5705;DHT22;2877;48.238;11.160;2023-01-04T14:52:29;9.20;99.90
5705;DHT22;2877;48.238;11.160;2023-01-04T14:54:55;9.20;99.90
5705;DHT22;2877;48.238;11.160;2023-01-04T14:57:21;9.10;99.90
5705;DHT22;2877;48.238;11.160;2023-01-04T14:59:47;9.10;99.90
5705;DHT22;2877;48.238;11.160;2023-01-04T15:02:12;9.10;99.90
5705;DHT22;2877;48.238;11.160;2023-01-04T15:04:38;9.10;99.90
5705;DHT22;2877;48.238;11.160;2023-01-04T15:07:04;9.10;99.90
5705;DHT22;2877;48.238;11.160;2023-01-04T15:09:30;9.10;99.90
5705;DHT22;2877;48.238;11.160;2023-01-04T15:11:56;9.10;99.90
5705;DHT22;2877;48.238;11.160;2023-01-04T15:14:28;9.10;99.90
5705;DHT22;2877;48.238;11.160;2023-01-04T15:16:54;9.10;99.90
5705;DHT22;2877;48.238;11.160;2023-01-04T15:19:19;9.10;99.90
5705;DHT22;2877;48.238;11.160;2023-01-04T15:21:46;9.10;99.90
5705;DHT22;2877;48.238;11.160;2023-01-04T15:24:11;9.00;99.90
5705;DHT22;2877;48.238;11.160;2023-01-04T15:26:38;9.00;99.90
5705;DHT22;2877;48.238;11.160;2023-01-04T15:29:03;9.00;99.90
5705;DHT22;2877;48.238;11.160;2023-01-04T15:31:30;8.90;99.90
5705;DHT22;2877;48.238;11.160;2023-01-04T15:33:57;8.90;99.90
5705;DHT22;2877;48.238;11.160;2023-01-04T15:36:23;8.90;99.90
5705;DHT22;2877;48.238;11.160;2023-01-04T15:38:53;8.90;99.90
5705;DHT22;2877;48.238;11.160;2023-01-04T15:41:19;8.80;99.90
5705;DHT22;2877;48.238;11.160;2023-01-04T15:44:03;8.80;99.90
5705;DHT22;2877;48.238;11.160;2023-01-04T15:46:29;8.80;99.90
5705;DHT22;2877;48.238;11.160;2023-01-04T15:48:55;8.80;99.90
5705;DHT22;2877;48.238;11.160;2023-01-04T15:51:20;8.70;99.90
5705;DHT22;2877;48.238;11.160;2023-01-04T15:53:49;8.70;99.90
5705;DHT22;2877;48.238;11.160;2023-01-04T15:56:15;8.70;99.90
5705;DHT22;2877;48.238;11.160;2023-01-04T15:58:42;8.70;99.90
5705;DHT22;2877;48.238;11.160;2023-01-04T16:01:09;8.60;99.90
5705;DHT22;2877;48.238;11.160;2023-01-04T16:03:36;8.60;99.90
5705;DHT22;2877;48.238;11.160;2023-01-04T16:06:10;8.70;99.90
5705;DHT22;2877;48.238;11.160;2023-01-04T16:08:36;8.60;99.90
5705;DHT22;2877;48.238;11.160;2023-01-04T16:11:34;8.60;99.90
5705;DHT22;2877;48.238;11.160;2023-01-04T16:14:01;8.60;99.90
5705;DHT22;2877;48.238;11.160;2023-01-04T16:16:27;8.60;99.90
5705;DHT22;2877;48.238;11.160;2023-01-04T16:18:55;8.60;99.90
5705;DHT22;2877;48.238;11.160;2023-01-04T16:21:23;8.60;99.90
5705;DHT22;2877;48.238;11.160;2023-01-04T16:23:56;8.60;99.90
5705;DHT22;2877;48.238;11.160;2023-01-04T16:26:22;8.60;99.90
5705;DHT22;2877;48.238;11.160;2023-01-04T16:28:49;8.70;99.90
5705;DHT22;2877;48.238;11.160;2023-01-04T16:31:16;8.60;99.90
5705;DHT22;2877;48.238;11.160;2023-01-04T16:33:41;8.60;99.90
5705;DHT22;2877;48.238;11.160;2023-01-04T16:36:11;8.60;99.90
5705;DHT22;2877;48.238;11.160;2023-01-04T16:38:39;8.60;99.90
5705;DHT22;2877;48.238;11.160;2023-01-04T16:41:06;8.60;99.90
5705;DHT22;2877;48.238;11.160;2023-01-04T16:43:41;8.60;99.90
5705;DHT22;2877;48.238;11.160;2023-01-04T16:46:26;8.60;99.90
5705;DHT22;2877;48.238;11.160;2023-01-04T16:49:06;8.60;99.90
5705;DHT22;2877;48.238;11.160;2023-01-04T16:51:35;8.60;99.90
5705;DHT22;2877;48.238;11.160;2023-01-04T16:54:02;8.70;99.90
5705;DHT22;2877;48.238;11.160;2023-01-04T16:56:28;8.70;99.90
5705;DHT22;2877;48.238;11.160;2023-01-04T16:58:54;8.70;99.90
5705;DHT22;2877;48.238;11.160;2023-01-04T17:01:27;8.60;99.90
5705;DHT22;2877;48.238;11.160;2023-01-04T17:04:04;8.60;99.90
5705;DHT22;2877;48.238;11.160;2023-01-04T17:06:38;8.60;99.90
5705;DHT22;2877;48.238;11.160;2023-01-04T17:09:04;8.50;99.90
5705;DHT22;2877;48.238;11.160;2023-01-04T17:11:35;8.50;99.90
5705;DHT22;2877;48.238;11.160;2023-01-04T17:14:02;8.40;99.90
5705;DHT22;2877;48.238;11.160;2023-01-04T17:16:27;8.40;99.90
5705;DHT22;2877;48.238;11.160;2023-01-04T17:18:54;8.40;99.90
5705;DHT22;2877;48.238;11.160;2023-01-04T17:21:22;8.40;99.90
5705;DHT22;2877;48.238;11.160;2023-01-04T17:23:50;8.50;99.90
5705;DHT22;2877;48.238;11.160;2023-01-04T17:26:25;8.50;99.90
5705;DHT22;2877;48.238;11.160;2023-01-04T17:28:51;8.50;99.90
5705;DHT22;2877;48.238;11.160;2023-01-04T17:31:20;8.50;99.90
5705;DHT22;2877;48.238;11.160;2023-01-04T17:33:47;8.50;99.90
5705;DHT22;2877;48.238;11.160;2023-01-04T17:36:14;8.50;99.90
5705;DHT22;2877;48.238;11.160;2023-01-04T17:38:40;8.40;99.90
5705;DHT22;2877;48.238;11.160;2023-01-04T17:41:16;8.40;99.90
5705;DHT22;2877;48.238;11.160;2023-01-04T17:43:44;8.40;99.90
5705;DHT22;2877;48.238;11.160;2023-01-04T17:46:13;8.40;99.90
5705;DHT22;2877;48.238;11.160;2023-01-04T17:48:39;8.30;99.90
5705;DHT22;2877;48.238;11.160;2023-01-04T17:51:12;8.30;99.90
5705;DHT22;2877;48.238;11.160;2023-01-04T17:53:39;8.30;99.90
5705;DHT22;2877;48.238;11.160;2023-01-04T17:56:07;8.30;99.90
5705;DHT22;2877;48.238;11.160;2023-01-04T17:58:34;8.30;99.90
5705;DHT22;2877;48.238;11.160;2023-01-04T18:01:16;8.30;99.90